createdAt,value
2019-02-02T00:01:53.618Z,26.40
2019-02-02T00:04:21.746Z,26.82
2019-02-02T00:06:49.577Z,26.50
2019-02-02T00:09:17.712Z,26.05
2019-02-02T00:11:45.678Z,26.70
2019-02-02T00:14:14.257Z,27.25
2019-02-02T00:16:42.299Z,26.55
2019-02-02T00:19:10.822Z,27.20
2019-02-02T00:21:38.810Z,26.20
2019-02-02T00:24:06.743Z,27.55
2019-02-02T00:26:34.648Z,27.20
2019-02-02T00:29:02.513Z,26.37
2019-02-02T00:31:30.431Z,26.85
2019-02-02T00:33:58.498Z,27.30
2019-02-02T00:36:26.451Z,26.00
2019-02-02T00:38:54.889Z,24.80
2019-02-02T00:41:22.933Z,24.05
2019-02-02T00:43:50.787Z,24.85
2019-02-02T00:46:18.819Z,25.10
2019-02-02T00:48:46.770Z,24.55
2019-02-02T00:51:14.895Z,25.52
2019-02-02T00:53:42.854Z,27.80
2019-02-02T00:56:10.856Z,26.17
2019-02-02T00:58:38.749Z,26.45
2019-02-02T01:01:06.707Z,27.13
2019-02-02T01:03:34.731Z,20.97
2019-02-02T01:06:04.782Z,20.77
2019-02-02T01:08:32.675Z,24.40
2019-02-02T01:11:01.048Z,23.40
2019-02-02T01:13:28.884Z,26.05
2019-02-02T01:15:56.949Z,25.97
2019-02-02T01:18:24.863Z,23.85
2019-02-02T01:20:52.808Z,24.47
2019-02-02T01:23:21.298Z,21.65
2019-02-02T01:25:49.224Z,22.60
2019-02-02T01:28:17.037Z,20.62
2019-02-02T01:30:45.006Z,19.75
2019-02-02T01:33:12.906Z,22.90
2019-02-02T01:35:40.741Z,23.07
2019-02-02T01:38:08.708Z,23.50
2019-02-02T01:40:36.621Z,23.85
2019-02-02T01:43:04.929Z,23.90
2019-02-02T01:45:32.831Z,25.43
2019-02-02T01:48:00.647Z,25.62
2019-02-02T01:50:28.690Z,24.82
2019-02-02T01:52:56.976Z,24.65
2019-02-02T01:55:24.906Z,23.00
2019-02-02T01:57:52.947Z,23.00
2019-02-02T02:00:25.284Z,24.47
2019-02-02T02:02:53.383Z,23.70
2019-02-02T02:05:21.771Z,26.02
2019-02-02T02:07:49.970Z,25.27
2019-02-02T02:10:18.539Z,23.57
2019-02-02T02:12:46.485Z,25.45
2019-02-02T02:15:16.036Z,25.12
2019-02-02T02:17:45.584Z,23.02
2019-02-02T02:20:14.775Z,25.30
2019-02-02T02:22:42.992Z,23.20
2019-02-02T02:25:14.865Z,25.00
2019-02-02T02:27:42.891Z,25.32
2019-02-02T02:30:18.076Z,23.80
2019-02-02T02:32:46.110Z,26.37
2019-02-02T02:35:14.409Z,25.25
2019-02-02T02:37:42.884Z,25.50
2019-02-02T02:40:14.188Z,27.55
2019-02-02T02:42:42.154Z,26.07
2019-02-02T02:45:10.221Z,25.55
2019-02-02T02:47:38.228Z,28.25
2019-02-02T02:50:09.532Z,29.10
2019-02-02T02:52:37.438Z,24.57
2019-02-02T02:55:07.810Z,26.60
2019-02-02T02:57:35.636Z,26.65
2019-02-02T03:00:06.921Z,25.45
2019-02-02T03:02:34.736Z,27.40
2019-02-02T03:05:03.204Z,26.30
2019-02-02T03:07:31.135Z,27.85
2019-02-02T03:09:59.289Z,26.45
2019-02-02T03:12:27.808Z,26.95
2019-02-02T03:14:56.210Z,24.18
2019-02-02T03:17:24.044Z,27.15
2019-02-02T03:19:51.946Z,26.70
2019-02-02T03:22:19.828Z,26.57
2019-02-02T03:24:47.726Z,26.90
2019-02-02T03:27:15.828Z,27.82
2019-02-02T03:29:43.784Z,26.97
2019-02-02T03:32:11.796Z,27.13
2019-02-02T03:34:39.636Z,27.30
2019-02-02T03:37:07.532Z,28.32
2019-02-02T03:39:35.850Z,27.17
2019-02-02T03:42:04.033Z,27.13
2019-02-02T03:44:32.011Z,25.97
2019-02-02T03:46:59.845Z,26.68
2019-02-02T03:49:27.855Z,27.67
2019-02-02T03:51:55.854Z,25.90
2019-02-02T03:54:23.804Z,27.42
2019-02-02T03:56:51.734Z,28.52
2019-02-02T03:59:19.729Z,27.37
2019-02-02T04:01:47.576Z,27.90
2019-02-02T04:04:15.411Z,31.40
2019-02-02T04:06:43.256Z,28.55
2019-02-02T04:09:11.212Z,28.83
2019-02-02T04:11:39.555Z,28.15
2019-02-02T04:14:07.693Z,26.82
2019-02-02T04:16:35.617Z,28.83
2019-02-02T04:19:03.585Z,28.80
2019-02-02T04:21:31.406Z,29.10
2019-02-02T04:23:59.639Z,27.40
2019-02-02T04:26:27.563Z,26.07
2019-02-02T04:28:55.629Z,27.45
2019-02-02T04:31:24.042Z,26.95
2019-02-02T04:33:51.993Z,25.12
2019-02-02T04:36:19.876Z,25.62
2019-02-02T04:38:48.506Z,26.17
2019-02-02T04:41:16.417Z,25.12
2019-02-02T04:43:44.309Z,25.55
2019-02-02T04:46:12.163Z,27.20
2019-02-02T04:48:40.127Z,28.85
2019-02-02T04:51:08.097Z,27.10
2019-02-02T04:53:37.175Z,27.93
2019-02-02T04:56:05.128Z,26.17
2019-02-02T04:58:33.039Z,28.45
2019-02-02T05:01:00.899Z,26.17
2019-02-02T05:03:28.780Z,26.93
2019-02-02T05:05:56.707Z,27.32
2019-02-02T05:08:25.070Z,26.80
2019-02-02T05:10:52.970Z,29.12
2019-02-02T05:13:20.875Z,26.68
2019-02-02T05:15:48.832Z,28.65
2019-02-02T05:18:16.811Z,27.30
2019-02-02T05:20:44.787Z,27.20
2019-02-02T05:23:12.740Z,27.30
2019-02-02T05:25:40.912Z,25.85
2019-02-02T05:28:08.735Z,27.93
2019-02-02T05:30:36.681Z,29.32
2019-02-02T05:33:05.228Z,28.30
2019-02-02T05:35:33.161Z,28.42
2019-02-02T05:38:00.992Z,31.40
2019-02-02T05:40:28.887Z,30.15
2019-02-02T05:42:56.696Z,27.65
2019-02-02T05:45:24.665Z,27.30
2019-02-02T05:47:52.587Z,30.10
2019-02-02T05:50:22.486Z,29.85
2019-02-02T05:52:50.716Z,29.05
2019-02-02T05:55:19.606Z,29.35
2019-02-02T05:57:47.892Z,29.30
2019-02-02T06:00:40.060Z,32.23
2019-02-02T06:03:07.937Z,29.48
2019-02-02T06:05:35.803Z,32.55
2019-02-02T06:08:03.899Z,29.20
2019-02-02T06:10:32.199Z,31.55
2019-02-02T06:13:00.083Z,30.65
2019-02-02T06:15:28.870Z,29.20
2019-02-02T06:17:57.268Z,27.10
2019-02-02T06:20:25.167Z,28.10
2019-02-02T06:22:53.376Z,28.73
2019-02-02T06:25:21.384Z,27.48
2019-02-02T06:27:49.258Z,27.93
2019-02-02T06:30:17.923Z,27.98
2019-02-02T06:32:45.802Z,27.30
2019-02-02T06:35:14.878Z,28.10
2019-02-02T06:37:42.745Z,28.02
2019-02-02T06:40:11.913Z,26.42
2019-02-02T06:42:39.929Z,29.48
2019-02-02T06:45:12.738Z,27.20
2019-02-02T06:47:40.560Z,29.37
2019-02-02T06:50:11.940Z,30.45
2019-02-02T06:52:39.831Z,28.07
2019-02-02T06:55:09.162Z,28.42
2019-02-02T06:57:37.256Z,26.50
2019-02-02T07:00:15.776Z,28.23
2019-02-02T07:02:37.892Z,26.70
2019-02-02T07:05:06.439Z,28.38
2019-02-02T07:07:34.318Z,28.87
2019-02-02T07:10:02.332Z,28.02
2019-02-02T07:12:30.142Z,27.87
2019-02-02T07:14:58.131Z,27.48
2019-02-02T07:17:26.200Z,30.92
2019-02-02T07:19:54.232Z,31.75
2019-02-02T07:22:22.305Z,33.08
2019-02-02T07:24:50.318Z,31.60
2019-02-02T07:27:18.640Z,30.37
2019-02-02T07:29:46.524Z,27.80
2019-02-02T07:32:14.390Z,29.70
2019-02-02T07:34:42.358Z,27.80
2019-02-02T07:37:10.328Z,27.25
2019-02-02T07:39:38.490Z,27.45
2019-02-02T07:42:06.318Z,24.63
2019-02-02T07:44:34.939Z,26.07
2019-02-02T07:47:03.057Z,26.62
2019-02-02T07:49:31.077Z,24.30
2019-02-02T07:51:59.116Z,25.40
2019-02-02T07:54:27.186Z,23.18
2019-02-02T07:56:55.464Z,23.40
2019-02-02T07:59:23.394Z,25.32
2019-02-02T08:01:51.347Z,24.95
2019-02-02T08:04:19.541Z,23.67
2019-02-02T08:06:47.621Z,22.95
2019-02-02T08:09:16.097Z,24.45
2019-02-02T08:11:44.074Z,22.13
2019-02-02T08:14:12.055Z,23.35
2019-02-02T08:16:40.188Z,23.95
2019-02-02T08:19:08.280Z,24.12
2019-02-02T08:21:38.199Z,20.72
2019-02-02T08:24:06.389Z,21.65
2019-02-02T08:26:34.510Z,22.48
2019-02-02T08:29:02.534Z,21.35
2019-02-02T08:31:30.438Z,20.43
2019-02-02T08:33:58.321Z,22.85
2019-02-02T08:36:26.694Z,21.10
2019-02-02T08:38:55.150Z,21.10
2019-02-02T08:41:24.377Z,22.37
2019-02-02T08:43:52.261Z,23.05
2019-02-02T08:46:20.103Z,23.75
2019-02-02T08:48:48.154Z,21.90
2019-02-02T08:51:16.129Z,24.27
2019-02-02T08:53:44.327Z,21.17
2019-02-02T08:56:12.219Z,21.42
2019-02-02T08:58:40.357Z,20.80
2019-02-02T09:01:08.265Z,21.35
2019-02-02T09:03:36.206Z,18.62
2019-02-02T09:06:04.444Z,22.00
2019-02-02T09:08:32.389Z,22.42
2019-02-02T09:11:00.822Z,20.77
2019-02-02T09:13:29.037Z,17.90
2019-02-02T09:15:57.538Z,18.82
2019-02-02T09:18:25.500Z,17.32
2019-02-02T09:20:53.640Z,20.45
2019-02-02T09:23:21.906Z,22.55
2019-02-02T09:25:49.969Z,21.60
2019-02-02T09:28:18.183Z,22.90
2019-02-02T09:30:49.676Z,19.35
2019-02-02T09:33:17.816Z,17.15
2019-02-02T09:35:45.699Z,16.45
2019-02-02T09:38:13.936Z,17.15
2019-02-02T09:40:42.457Z,17.70
2019-02-02T09:43:10.886Z,16.10
2019-02-02T09:45:38.845Z,16.40
2019-02-02T09:48:07.824Z,17.15
2019-02-02T09:50:35.925Z,17.70
2019-02-02T09:53:04.293Z,19.20
2019-02-02T09:55:32.226Z,19.82
2019-02-02T09:58:08.681Z,19.73
2019-02-02T10:00:36.288Z,18.80
2019-02-02T10:03:05.000Z,17.52
2019-02-02T10:05:33.486Z,18.75
2019-02-02T10:08:01.988Z,18.92
2019-02-02T10:10:33.136Z,19.17
2019-02-02T10:13:01.800Z,17.60
2019-02-02T10:15:30.131Z,18.05
2019-02-02T10:17:58.273Z,18.92
2019-02-02T10:20:28.266Z,17.62
2019-02-02T10:22:58.057Z,15.88
2019-02-02T10:25:28.566Z,16.35
2019-02-02T10:27:56.918Z,16.80
2019-02-02T10:30:29.204Z,16.00
2019-02-02T10:32:57.221Z,15.43
2019-02-02T10:35:25.895Z,17.30
2019-02-02T10:37:55.297Z,16.73
2019-02-02T10:40:23.253Z,15.58
2019-02-02T10:42:51.316Z,14.05
2019-02-02T10:45:19.530Z,16.48
2019-02-02T10:47:47.367Z,15.90
2019-02-02T10:50:16.853Z,15.98
2019-02-02T10:52:46.045Z,18.90
2019-02-02T10:55:17.319Z,19.60
2019-02-02T10:57:45.495Z,17.60
2019-02-02T11:00:21.309Z,17.90
2019-02-02T11:02:49.445Z,16.07
2019-02-02T11:05:17.676Z,17.15
2019-02-02T11:07:46.237Z,17.92
2019-02-02T11:10:18.963Z,18.60
2019-02-02T11:12:48.845Z,19.75
2019-02-02T11:15:17.812Z,17.98
2019-02-02T11:17:46.285Z,18.23
2019-02-02T11:20:18.672Z,17.98
2019-02-02T11:22:47.128Z,17.37
2019-02-02T11:25:15.170Z,16.80
2019-02-02T11:27:43.258Z,21.17
2019-02-02T11:30:13.345Z,21.15
2019-02-02T11:32:42.599Z,16.30
2019-02-02T11:35:13.237Z,21.27
2019-02-02T11:37:41.867Z,19.57
2019-02-02T11:40:14.860Z,19.57
2019-02-02T11:42:42.796Z,22.10
2019-02-02T11:45:11.827Z,20.68
2019-02-02T11:47:39.890Z,17.55
2019-02-02T11:50:10.891Z,20.52
2019-02-02T11:52:38.977Z,18.98
2019-02-02T11:55:08.624Z,20.12
2019-02-02T11:57:36.706Z,19.27
2019-02-02T12:00:10.730Z,17.35
2019-02-02T12:02:49.172Z,19.60
2019-02-02T12:05:09.138Z,19.40
2019-02-02T12:07:37.132Z,18.90
2019-02-02T12:10:07.861Z,20.77
2019-02-02T12:12:35.966Z,21.10
2019-02-02T12:15:06.806Z,20.15
2019-02-02T12:17:34.739Z,21.45
2019-02-02T12:20:03.924Z,21.23
2019-02-02T12:22:32.059Z,21.95
2019-02-02T12:25:01.809Z,18.87
2019-02-02T12:27:29.893Z,21.33
2019-02-02T12:29:58.207Z,20.90
2019-02-02T12:32:27.070Z,20.37
2019-02-02T12:34:55.751Z,22.80
2019-02-02T12:37:23.770Z,23.42
2019-02-02T12:39:51.791Z,22.60
2019-02-02T12:42:20.312Z,21.95
2019-02-02T12:44:48.385Z,18.98
2019-02-02T12:47:16.635Z,20.88
2019-02-02T12:49:44.686Z,22.48
2019-02-02T12:52:12.723Z,21.05
2019-02-02T12:54:40.931Z,20.43
2019-02-02T12:57:08.916Z,20.85
2019-02-02T12:59:38.158Z,21.77
2019-02-02T13:02:06.294Z,20.37
2019-02-02T13:04:34.565Z,21.65
2019-02-02T13:07:03.166Z,22.60
2019-02-02T13:09:31.131Z,21.90
2019-02-02T13:11:59.087Z,22.98
2019-02-02T13:14:27.280Z,23.95
2019-02-02T13:16:55.420Z,23.77
2019-02-02T13:19:23.707Z,23.38
2019-02-02T13:21:51.704Z,19.73
2019-02-02T13:24:20.111Z,20.37
2019-02-02T13:26:48.229Z,21.30
2019-02-02T13:29:16.326Z,21.52
2019-02-02T13:31:44.244Z,21.05
2019-02-02T13:34:12.313Z,19.75
2019-02-02T13:36:40.403Z,21.97
2019-02-02T13:39:10.894Z,21.97
2019-02-02T13:41:39.938Z,20.75
2019-02-02T13:44:08.163Z,21.42
2019-02-02T13:46:36.624Z,20.77
2019-02-02T13:49:04.646Z,20.50
2019-02-02T13:51:32.683Z,20.65
2019-02-02T13:54:00.789Z,20.02
2019-02-02T13:56:29.167Z,21.00
2019-02-02T13:58:57.125Z,23.10
2019-02-02T14:01:25.225Z,23.40
2019-02-02T14:03:53.293Z,21.68
2019-02-02T14:06:21.797Z,21.23
2019-02-02T14:08:49.735Z,22.58
2019-02-02T14:11:17.802Z,21.20
2019-02-02T14:13:46.458Z,23.42
2019-02-02T14:16:14.488Z,22.85
2019-02-02T14:18:42.557Z,19.48
2019-02-02T14:21:10.766Z,19.40
2019-02-02T14:23:39.194Z,20.95
2019-02-02T14:26:07.143Z,21.93
2019-02-02T14:28:35.116Z,21.75
2019-02-02T14:31:03.114Z,20.40
2019-02-02T14:33:31.280Z,19.95
2019-02-02T14:36:01.858Z,20.35
2019-02-02T14:38:29.583Z,21.57
2019-02-02T14:40:57.739Z,20.00
2019-02-02T14:43:26.069Z,21.68
2019-02-02T14:45:54.305Z,20.72
2019-02-02T14:48:22.659Z,19.48
2019-02-02T14:50:50.686Z,19.87
2019-02-02T14:53:18.665Z,20.05
2019-02-02T14:55:47.137Z,19.95
2019-02-02T14:58:15.171Z,20.40
2019-02-02T15:00:43.231Z,19.80
2019-02-02T15:03:11.147Z,19.57
2019-02-02T15:05:42.971Z,18.80
2019-02-02T15:08:09.420Z,19.00
2019-02-02T15:10:37.935Z,19.20
2019-02-02T15:13:06.090Z,20.72
2019-02-02T15:15:34.625Z,20.60
2019-02-02T15:18:02.763Z,20.92
2019-02-02T15:20:36.094Z,19.30
2019-02-02T15:23:07.479Z,20.75
2019-02-02T15:25:36.380Z,19.75
2019-02-02T15:28:04.648Z,19.73
2019-02-02T15:30:33.560Z,19.42
2019-02-02T15:33:01.964Z,19.90
2019-02-02T15:35:30.305Z,18.25
2019-02-02T15:37:58.599Z,17.75
2019-02-02T15:40:26.852Z,19.15
2019-02-02T15:42:55.231Z,18.40
2019-02-02T15:45:24.693Z,18.77
2019-02-02T15:47:52.604Z,18.67
2019-02-02T15:50:20.541Z,17.52
2019-02-02T15:52:48.747Z,17.60
2019-02-02T15:55:20.877Z,17.80
2019-02-02T15:57:49.338Z,18.10
2019-02-02T16:00:29.442Z,16.93
2019-02-02T16:02:57.717Z,19.75
2019-02-02T16:05:25.999Z,19.17
2019-02-02T16:07:54.790Z,22.07
2019-02-02T16:10:25.584Z,20.57
2019-02-02T16:12:53.687Z,19.50
2019-02-02T16:15:21.891Z,20.92
2019-02-02T16:17:50.342Z,21.52
2019-02-02T16:20:22.039Z,20.48
2019-02-02T16:22:50.037Z,19.87
2019-02-02T16:25:18.586Z,20.08
2019-02-02T16:27:46.654Z,22.22
2019-02-02T16:30:19.116Z,21.27
2019-02-02T16:32:47.416Z,19.92
2019-02-02T16:35:15.351Z,22.93
2019-02-02T16:37:43.449Z,22.42
2019-02-02T16:40:15.531Z,23.12
2019-02-02T16:42:43.685Z,20.72
2019-02-02T16:45:15.652Z,21.50
2019-02-02T16:47:43.945Z,22.40
2019-02-02T16:50:14.791Z,21.37
2019-02-02T16:52:43.097Z,18.60
2019-02-02T16:55:11.696Z,22.15
2019-02-02T16:57:40.371Z,27.58
2019-02-02T17:00:16.150Z,30.80
2019-02-02T17:02:44.346Z,27.05
2019-02-02T17:05:12.676Z,28.57
2019-02-02T17:07:41.615Z,26.07
2019-02-02T17:10:20.688Z,22.50
2019-02-02T17:12:48.773Z,20.65
2019-02-02T17:15:16.985Z,24.90
2019-02-02T17:17:45.520Z,20.05
2019-02-02T17:20:17.168Z,19.02
2019-02-02T17:22:45.635Z,21.80
2019-02-02T17:25:16.313Z,21.37
2019-02-02T17:27:44.570Z,17.75
2019-02-02T17:30:16.200Z,19.32
2019-02-02T17:32:44.687Z,19.55
2019-02-02T17:35:14.221Z,18.17
2019-02-02T17:37:42.509Z,17.73
2019-02-02T17:40:17.182Z,17.45
2019-02-02T17:42:45.531Z,20.25
2019-02-02T17:45:17.051Z,19.30
2019-02-02T17:47:45.536Z,21.20
2019-02-02T17:50:23.411Z,19.55
2019-02-02T17:52:51.401Z,16.05
2019-02-02T17:55:19.506Z,16.12
2019-02-02T17:57:47.470Z,17.27
2019-02-02T18:00:21.578Z,15.08
2019-02-02T18:02:49.803Z,15.80
2019-02-02T18:05:17.960Z,17.55
2019-02-02T18:07:45.973Z,17.52
2019-02-02T18:10:15.042Z,16.32
2019-02-02T18:12:43.444Z,16.57
2019-02-02T18:15:13.123Z,21.23
2019-02-02T18:17:41.308Z,18.35
2019-02-02T18:20:11.879Z,18.02
2019-02-02T18:22:39.980Z,14.85
2019-02-02T18:25:10.217Z,14.30
2019-02-02T18:27:38.483Z,14.40
2019-02-02T18:30:11.736Z,14.15
2019-02-02T18:32:40.117Z,12.85
2019-02-02T18:35:09.619Z,14.73
2019-02-02T18:37:37.628Z,13.13
2019-02-02T18:40:08.108Z,12.75
2019-02-02T18:42:36.539Z,17.50
2019-02-02T18:45:05.640Z,14.13
2019-02-02T18:47:33.674Z,15.98
2019-02-02T18:50:01.859Z,15.93
2019-02-02T18:52:29.909Z,16.85
2019-02-02T18:54:58.433Z,14.98
2019-02-02T18:57:26.796Z,15.15
2019-02-02T18:59:54.895Z,13.93
2019-02-02T19:02:22.864Z,14.47
2019-02-02T19:05:02.895Z,13.08
2019-02-02T19:07:21.217Z,12.88
2019-02-02T19:09:49.570Z,13.70
2019-02-02T19:12:17.695Z,13.70
2019-02-02T19:14:46.077Z,16.90
2019-02-02T19:17:14.306Z,22.95
2019-02-02T19:19:42.506Z,27.25
2019-02-02T19:22:11.136Z,26.05
2019-02-02T19:24:39.165Z,24.02
2019-02-02T19:27:07.334Z,18.67
2019-02-02T19:29:35.400Z,20.75
2019-02-02T19:32:03.473Z,19.85
2019-02-02T19:34:31.531Z,17.02
2019-02-02T19:36:59.733Z,17.92
2019-02-02T19:39:28.307Z,21.62
2019-02-02T19:41:56.310Z,19.67
2019-02-02T19:44:24.386Z,19.62
2019-02-02T19:46:52.401Z,17.55
2019-02-02T19:49:20.476Z,20.32
2019-02-02T19:51:49.161Z,19.25
2019-02-02T19:54:17.247Z,21.15
2019-02-02T19:56:45.153Z,17.60
2019-02-02T19:59:13.325Z,19.27
2019-02-02T20:01:41.776Z,18.70
2019-02-02T20:04:10.431Z,19.92
2019-02-02T20:06:38.458Z,19.20
2019-02-02T20:09:07.827Z,19.55
2019-02-02T20:11:35.893Z,19.80
2019-02-02T20:14:04.184Z,19.50
2019-02-02T20:16:32.192Z,21.10
2019-02-02T20:19:00.359Z,20.55
2019-02-02T20:21:28.470Z,20.35
2019-02-02T20:23:56.590Z,19.62
2019-02-02T20:26:24.494Z,21.33
2019-02-02T20:28:52.496Z,18.95
2019-02-02T20:31:20.654Z,19.32
2019-02-02T20:33:48.890Z,19.00
2019-02-02T20:36:17.110Z,18.67
2019-02-02T20:38:45.525Z,18.73
2019-02-02T20:41:13.810Z,20.90
2019-02-02T20:43:42.283Z,19.73
2019-02-02T20:46:10.470Z,18.80
2019-02-02T20:48:38.493Z,23.92
2019-02-02T20:51:06.493Z,23.07
2019-02-02T20:53:34.469Z,22.15
2019-02-02T20:56:02.574Z,23.02
2019-02-02T20:58:30.545Z,22.13
2019-02-02T21:00:58.671Z,19.45
2019-02-02T21:03:26.741Z,19.10
2019-02-02T21:05:54.790Z,18.65
2019-02-02T21:08:22.853Z,18.77
2019-02-02T21:10:51.265Z,18.80
2019-02-02T21:13:19.248Z,19.10
2019-02-02T21:15:47.268Z,21.10
2019-02-02T21:18:15.931Z,18.77
2019-02-02T21:20:44.217Z,20.12
2019-02-02T21:23:12.306Z,21.82
2019-02-02T21:25:40.969Z,22.77
2019-02-02T21:28:08.999Z,22.58
2019-02-02T21:30:37.200Z,22.00
2019-02-02T21:33:05.613Z,24.12
2019-02-02T21:35:33.772Z,24.55
2019-02-02T21:38:02.140Z,27.65
2019-02-02T21:40:32.488Z,25.80
2019-02-02T21:43:00.507Z,24.27
2019-02-02T21:45:28.941Z,22.45
2019-02-02T21:47:58.176Z,19.70
2019-02-02T21:50:26.694Z,18.90
2019-02-02T21:52:55.203Z,18.40
2019-02-02T21:55:26.405Z,20.90
2019-02-02T21:57:54.744Z,19.90
2019-02-02T22:00:29.688Z,20.40
2019-02-02T22:02:57.846Z,20.43
2019-02-02T22:05:25.940Z,23.05
2019-02-02T22:07:54.538Z,24.52
2019-02-02T22:10:22.641Z,25.80
2019-02-02T22:12:52.786Z,23.77
2019-02-02T22:15:22.648Z,26.82
2019-02-02T22:17:50.608Z,26.55
2019-02-02T22:20:18.718Z,29.37
2019-02-02T22:22:46.846Z,28.25
2019-02-02T22:25:21.198Z,28.38
2019-02-02T22:27:50.216Z,27.27
2019-02-02T22:30:30.504Z,30.02
2019-02-02T22:32:59.350Z,29.80
2019-02-02T22:35:27.993Z,33.75
2019-02-02T22:37:57.011Z,32.15
2019-02-02T22:55:17.999Z,32.03
2019-02-02T22:57:47.111Z,32.85
2019-02-02T23:03:06.246Z,31.48
2019-02-02T23:05:59.830Z,33.33
2019-02-02T23:09:15.272Z,35.33
2019-02-02T23:12:32.778Z,31.73
2019-02-02T23:21:31.048Z,33.38
2019-02-02T23:29:17.056Z,33.88
2019-02-02T23:31:46.381Z,32.15
2019-02-02T23:39:31.706Z,31.62
2019-02-02T23:44:50.153Z,32.58
2019-02-02T23:47:19.692Z,32.70
2019-02-02T23:55:11.507Z,31.45
2019-02-02T23:57:40.084Z,32.67
